Time;durP1;ratioP1;P1;durP2;ratioP2;P2;SDS_P1;SDS_P2;PMS_P1;PMS_P2;Temp;Humidity;BMP_temperature;BMP_pressure;BME280_temperature;BME280_humidity;BME280_pressure;Samples;Min_cycle;Max_cycle;Signal;HPM_P1;HPM_P2
2021/01/22 00:01:03;;;;;;;43.40;20.80;;;2.60;94.30;;;;;;5077293;28;20036;-69
2021/01/22 00:03:29;;;;;;;55.38;27.08;;;2.60;94.40;;;;;;5077836;28;20020;-69
2021/01/22 00:05:54;;;;;;;37.00;18.55;;;2.60;94.30;;;;;;5095279;28;20440;-69
2021/01/22 00:08:20;;;;;;;42.40;19.92;;;2.60;94.30;;;;;;5077715;28;20028;-69
2021/01/22 00:10:46;;;;;;;38.70;18.35;;;2.60;94.30;;;;;;5095820;28;20480;-69
2021/01/22 00:13:11;;;;;;;42.63;18.88;;;2.60;94.30;;;;;;5077253;28;20024;-70
2021/01/22 00:15:37;;;;;;;37.28;16.67;;;2.70;94.30;;;;;;5077402;28;20016;-69
2021/01/22 00:18:03;;;;;;;37.05;17.88;;;2.60;94.10;;;;;;5095260;28;20092;-68
2021/01/22 00:20:28;;;;;;;57.60;27.77;;;2.60;94.10;;;;;;5095467;28;20024;-68
2021/01/22 00:22:54;;;;;;;42.47;19.48;;;2.60;94.20;;;;;;5095181;28;20465;-69
2021/01/22 00:25:20;;;;;;;50.35;24.42;;;2.60;94.20;;;;;;5077019;28;20028;-69
2021/01/22 00:27:46;;;;;;;47.70;20.80;;;2.60;94.20;;;;;;5095264;28;20020;-76
2021/01/22 00:30:12;;;;;;;49.95;24.95;;;2.60;94.30;;;;;;5076543;28;20031;-72
2021/01/22 00:32:38;;;;;;;46.97;22.95;;;2.60;94.40;;;;;;5076248;28;20028;-72
2021/01/22 00:35:05;;;;;;;54.30;26.80;;;2.60;94.40;;;;;;5077127;28;20031;-71
2021/01/22 00:37:31;;;;;;;50.13;25.52;;;2.60;94.40;;;;;;5095279;28;20016;-70
2021/01/22 00:39:57;;;;;;;55.92;24.20;;;2.60;94.20;;;;;;5076832;28;20082;-71
2021/01/22 00:42:22;;;;;;;70.30;29.08;;;2.60;94.00;;;;;;5095034;28;20415;-72
2021/01/22 00:44:48;;;;;;;75.25;31.98;;;2.60;94.10;;;;;;5095004;28;20095;-71
2021/01/22 00:47:14;;;;;;;64.47;28.98;;;2.60;94.30;;;;;;5076739;28;20052;-71
2021/01/22 00:49:40;;;;;;;45.65;20.65;;;2.50;94.30;;;;;;5076890;28;20054;-71
2021/01/22 00:52:05;;;;;;;69.75;29.30;;;2.50;94.20;;;;;;5094557;28;20085;-71
2021/01/22 00:54:31;;;;;;;62.45;25.38;;;2.50;94.30;;;;;;5094844;28;20085;-70
2021/01/22 00:56:57;;;;;;;48.13;22.77;;;2.50;94.40;;;;;;5094897;28;20469;-71
2021/01/22 00:59:23;;;;;;;46.40;20.55;;;2.60;94.50;;;;;;5094489;28;20107;-71
2021/01/22 01:01:49;;;;;;;40.75;17.85;;;2.50;94.30;;;;;;5094792;28;20024;-70
2021/01/22 01:04:15;;;;;;;41.50;20.35;;;2.50;94.30;;;;;;5076093;28;20031;-70
2021/01/22 01:06:41;;;;;;;39.72;16.27;;;2.60;94.30;;;;;;5094939;28;20039;-70
2021/01/22 01:09:07;;;;;;;35.58;17.65;;;2.60;94.30;;;;;;5076392;28;20043;-70
2021/01/22 01:11:33;;;;;;;30.98;14.48;;;2.60;94.20;;;;;;5076088;28;20085;-71
2021/01/22 01:13:59;;;;;;;39.72;17.98;;;2.50;94.20;;;;;;5094447;28;20031;-71
2021/01/22 01:16:24;;;;;;;44.22;22.42;;;2.50;94.20;;;;;;5094416;28;20028;-70
2021/01/22 01:18:50;;;;;;;40.28;20.23;;;2.50;94.30;;;;;;5076294;28;20051;-70
2021/01/22 01:21:16;;;;;;;40.80;20.10;;;2.60;94.40;;;;;;5094305;28;20405;-71
2021/01/22 01:23:42;;;;;;;30.17;14.82;;;2.50;94.30;;;;;;5075972;28;20032;-71
2021/01/22 01:26:08;;;;;;;38.97;16.23;;;2.50;94.20;;;;;;5076155;28;20020;-71
2021/01/22 01:28:33;;;;;;;45.92;21.58;;;2.50;94.20;;;;;;5093851;28;20104;-71
2021/01/22 01:30:59;;;;;;;28.13;11.63;;;2.50;94.50;;;;;;5094321;28;20031;-71
2021/01/22 01:33:25;;;;;;;40.85;19.73;;;2.40;94.20;;;;;;5094178;28;20381;-71
2021/01/22 01:35:53;;;;;;;31.75;16.38;;;2.40;94.20;;;;;;5075616;28;20077;-71
2021/01/22 01:38:19;;;;;;;30.63;15.23;;;2.40;94.10;;;;;;5076114;28;20362;-71
2021/01/22 01:40:45;;;;;;;37.05;17.85;;;2.40;94.20;;;;;;5075612;28;20114;-72
2021/01/22 01:43:11;;;;;;;32.67;15.23;;;2.30;94.50;;;;;;5094408;28;20032;-71
2021/01/22 01:45:40;;;;;;;62.60;26.92;;;2.30;94.20;;;;;;5093421;28;20459;-71
2021/01/22 01:48:10;;;;;;;49.13;22.00;;;2.30;94.20;;;;;;5093739;28;20351;-71
2021/01/22 01:50:36;;;;;;;33.88;13.75;;;2.30;94.40;;;;;;5075553;28;20496;-71
2021/01/22 01:53:03;;;;;;;38.83;17.17;;;2.30;94.50;;;;;;5075645;28;20062;-70
2021/01/22 01:55:40;;;;;;;42.22;20.05;;;2.20;94.40;;;;;;5093615;28;20032;-70
2021/01/22 01:58:06;;;;;;;33.00;17.00;;;2.20;94.60;;;;;;5093456;28;20469;-70
2021/01/22 02:00:33;;;;;;;34.60;18.17;;;2.30;94.70;;;;;;5093538;28;20035;-70
2021/01/22 02:02:59;;;;;;;40.35;19.08;;;2.30;94.60;;;;;;5075151;28;20520;-71
2021/01/22 02:05:24;;;;;;;37.97;17.13;;;2.30;94.50;;;;;;5075548;28;20028;-72
2021/01/22 02:07:50;;;;;;;38.40;18.83;;;2.20;94.50;;;;;;5075070;28;20024;-70
2021/01/22 02:10:16;;;;;;;41.50;19.25;;;2.30;94.60;;;;;;5093425;28;20436;-70
2021/01/22 02:12:43;;;;;;;40.55;19.77;;;2.30;94.60;;;;;;5093324;28;20390;-71
2021/01/22 02:15:12;;;;;;;52.70;22.00;;;2.30;94.50;;;;;;5093631;28;20031;-71
2021/01/22 02:17:40;;;;;;;34.58;16.90;;;2.20;94.40;;;;;;5075405;28;20020;-70
2021/01/22 02:20:27;;;;;;;31.98;15.57;;;2.20;94.40;;;;;;5074843;28;20019;-70
2021/01/22 02:22:53;;;;;;;33.92;18.30;;;2.20;94.40;;;;;;5091376;28;20020;-67
2021/01/22 02:25:29;;;;;;;31.38;14.88;;;2.20;94.70;;;;;;5093722;28;20095;-67
2021/01/22 02:27:55;;;;;;;26.90;13.55;;;2.20;94.50;;;;;;5089515;28;20020;-67
2021/01/22 02:30:21;;;;;;;29.92;14.80;;;2.10;94.50;;;;;;5074929;28;20036;-67
2021/01/22 02:32:48;;;;;;;28.65;14.25;;;2.10;94.40;;;;;;5075102;28;20024;-69
2021/01/22 02:35:16;;;;;;;39.63;18.92;;;2.10;94.50;;;;;;5093175;28;20359;-67
2021/01/22 02:37:46;;;;;;;35.85;16.05;;;2.10;94.50;;;;;;5092930;28;20024;-67
2021/01/22 02:40:12;;;;;;;33.67;13.88;;;2.10;94.60;;;;;;5092746;28;20031;-67
2021/01/22 02:42:40;;;;;;;39.83;20.00;;;2.10;94.50;;;;;;5092989;28;20035;-67
2021/01/22 02:45:12;;;;;;;37.65;18.23;;;2.10;94.60;;;;;;5075363;28;20367;-68
2021/01/22 02:47:43;;;;;;;18.90;11.27;;;2.00;94.50;;;;;;5093188;28;20400;-66
2021/01/22 02:50:09;;;;;;;23.13;11.20;;;2.00;94.60;;;;;;5074618;28;20036;-66
2021/01/22 02:52:36;;;;;;;28.77;13.80;;;2.00;94.60;;;;;;5092838;28;20412;-67
2021/01/22 02:55:03;;;;;;;24.45;11.52;;;2.00;94.70;;;;;;5093066;28;20466;-66
2021/01/22 02:57:56;;;;;;;29.63;14.57;;;2.00;94.60;;;;;;5096885;28;20116;-67
2021/01/22 03:00:42;;;;;;;36.53;17.10;;;2.00;94.70;;;;;;5082463;28;20028;-66
2021/01/22 03:03:13;;;;;;;;;;;2.00;94.70;;;;;;5087686;28;20032;-69
2021/01/22 03:05:40;;;;;;;37.05;18.70;;;2.00;94.60;;;;;;5069581;28;19908;-69
2021/01/22 03:08:19;;;;;;;27.85;13.18;;;2.00;94.80;;;;;;5088443;28;20032;-67
2021/01/22 03:10:47;;;;;;;26.70;12.48;;;1.90;94.80;;;;;;5078764;28;20043;-69
2021/01/22 03:13:14;;;;;;;31.58;15.75;;;1.90;94.80;;;;;;5096722;28;20039;-68
2021/01/22 03:15:40;;;;;;;27.75;13.65;;;1.90;94.90;;;;;;5090651;28;20036;-66
2021/01/22 03:18:14;;;;;;;28.23;13.60;;;1.90;94.90;;;;;;5075824;28;20366;-67
2021/01/22 03:20:41;;;;;;;29.83;14.57;;;1.90;94.80;;;;;;5076750;28;20169;-67
2021/01/22 03:23:07;;;;;;;26.02;12.40;;;1.90;94.80;;;;;;5069028;28;20025;-67
2021/01/22 03:25:33;;;;;;;36.50;15.75;;;1.90;94.80;;;;;;5068786;28;20030;-67
2021/01/22 03:27:59;;;;;;;22.98;11.18;;;1.90;94.90;;;;;;5087530;28;20020;-68
2021/01/22 03:30:25;;;;;;;38.75;16.17;;;1.90;94.70;;;;;;5087714;28;20040;-67
2021/01/22 03:32:50;;;;;;;35.70;18.35;;;1.90;94.80;;;;;;5088633;28;20048;-68
2021/01/22 03:35:17;;;;;;;32.63;13.75;;;1.90;94.80;;;;;;5078929;28;20043;-67
2021/01/22 03:37:43;;;;;;;39.92;18.80;;;1.90;94.90;;;;;;5068022;28;20089;-67
2021/01/22 03:40:09;;;;;;;33.92;15.93;;;1.90;95.00;;;;;;5094638;28;20036;-71
2021/01/22 03:42:35;;;;;;;40.67;19.55;;;1.90;94.90;;;;;;5092427;28;20059;-67
2021/01/22 03:45:00;;;;;;;23.92;11.77;;;1.90;95.00;;;;;;5087596;28;20060;-68
2021/01/22 03:47:26;;;;;;;33.72;15.50;;;1.90;95.00;;;;;;5085537;28;20040;-67
2021/01/22 03:49:52;;;;;;;33.00;16.75;;;1.90;94.90;;;;;;5091658;28;20040;-69
2021/01/22 03:52:18;;;;;;;31.73;15.35;;;1.90;95.00;;;;;;5073949;28;21116;-67
2021/01/22 03:54:44;;;;;;;42.42;20.50;;;1.90;95.10;;;;;;5094281;28;20032;-66
2021/01/22 03:57:09;;;;;;;35.92;16.30;;;1.90;95.00;;;;;;5088932;28;20032;-71
2021/01/22 03:59:35;;;;;;;35.20;14.85;;;1.90;94.90;;;;;;5065115;28;20078;-65
2021/01/22 04:02:01;;;;;;;38.08;17.70;;;1.90;94.90;;;;;;5093732;28;20394;-66
2021/01/22 04:04:26;;;;;;;43.97;18.85;;;1.90;95.00;;;;;;5077144;28;20022;-67
2021/01/22 04:06:52;;;;;;;29.50;13.63;;;1.90;95.10;;;;;;5090462;28;20136;-66
2021/01/22 04:09:18;;;;;;;38.72;18.35;;;1.90;95.10;;;;;;5076748;28;20033;-66
2021/01/22 04:11:43;;;;;;;34.63;16.23;;;1.90;95.00;;;;;;5088029;28;20025;-66
2021/01/22 04:14:09;;;;;;;18.55;10.13;;;1.90;95.00;;;;;;5086703;28;20493;-75
2021/01/22 04:16:35;;;;;;;36.80;14.00;;;1.90;95.00;;;;;;5091912;28;20027;-66
2021/01/22 04:19:00;;;;;;;40.50;17.80;;;1.90;95.00;;;;;;5087271;28;20060;-67
2021/01/22 04:21:26;;;;;;;38.42;17.98;;;1.90;95.10;;;;;;5087021;28;20112;-66
2021/01/22 04:23:52;;;;;;;30.08;13.35;;;1.90;95.20;;;;;;5082883;28;20385;-66
2021/01/22 04:26:18;;;;;;;37.50;16.45;;;1.90;95.20;;;;;;5069946;28;20036;-66
2021/01/22 04:28:43;;;;;;;41.38;16.63;;;1.90;95.30;;;;;;5068555;28;20421;-66
2021/01/22 04:31:09;;;;;;;43.25;20.50;;;1.90;95.30;;;;;;5068894;28;20069;-67
2021/01/22 04:33:35;;;;;;;42.33;17.98;;;1.90;95.30;;;;;;5091865;28;20032;-65
2021/01/22 04:36:00;;;;;;;25.58;12.07;;;1.90;95.30;;;;;;5090176;28;20028;-67
2021/01/22 04:38:26;;;;;;;33.55;14.65;;;1.90;95.20;;;;;;5079038;28;20039;-80
2021/01/22 04:40:52;;;;;;;30.95;14.85;;;1.90;95.20;;;;;;5067398;28;20028;-67
2021/01/22 04:43:18;;;;;;;32.45;15.77;;;1.90;95.40;;;;;;5075851;28;20385;-70
2021/01/22 04:45:43;;;;;;;35.53;16.02;;;1.90;95.50;;;;;;5087772;28;20028;-68
2021/01/22 04:48:10;;;;;;;30.52;15.20;;;1.90;95.40;;;;;;5081727;28;20036;-69
2021/01/22 04:50:38;;;;;;;47.33;20.55;;;1.90;95.50;;;;;;5075841;28;20047;-69
2021/01/22 04:53:08;;;;;;;31.80;13.98;;;1.90;95.50;;;;;;5088945;28;20071;-69
2021/01/22 04:55:36;;;;;;;43.67;17.85;;;1.90;95.60;;;;;;5064991;28;20031;-70
2021/01/22 04:58:03;;;;;;;38.33;17.88;;;1.90;95.90;;;;;;5091655;28;20413;-69
2021/01/22 05:00:30;;;;;;;43.03;19.63;;;1.90;95.60;;;;;;5093465;28;20445;-69
2021/01/22 05:02:56;;;;;;;22.35;10.38;;;1.90;95.60;;;;;;5088870;28;20025;-69
2021/01/22 05:05:22;;;;;;;45.25;21.30;;;1.90;95.60;;;;;;5086987;28;20023;-69
2021/01/22 05:07:48;;;;;;;45.60;19.33;;;1.90;95.70;;;;;;5076232;28;20024;-68
2021/01/22 05:10:14;;;;;;;39.92;16.42;;;1.90;95.70;;;;;;5094811;28;20036;-68
2021/01/22 05:12:41;;;;;;;41.47;19.63;;;1.90;95.70;;;;;;5092665;28;20351;-70
2021/01/22 05:15:24;;;;;;;21.23;9.63;;;1.90;95.70;;;;;;5088178;28;20485;-70
2021/01/22 05:17:55;;;;;;;28.40;13.77;;;2.00;95.70;;;;;;5074305;28;20142;-84
2021/01/22 05:20:33;;;;;;;38.22;17.65;;;1.90;95.70;;;;;;5089025;28;20032;-71
2021/01/22 05:23:00;;;;;;;24.52;11.98;;;2.00;95.80;;;;;;5076012;28;20518;-69
2021/01/22 05:25:27;;;;;;;39.63;18.15;;;2.00;95.70;;;;;;5091336;28;20028;-70
2021/01/22 05:27:55;;;;;;;33.65;14.90;;;1.90;95.60;;;;;;5095784;28;20032;-70
2021/01/22 05:30:23;;;;;;;29.25;13.13;;;1.90;95.60;;;;;;5090619;28;20193;-69
2021/01/22 05:32:50;;;;;;;37.80;18.52;;;1.90;95.70;;;;;;5064706;28;20114;-69
2021/01/22 05:35:30;;;;;;;36.03;15.18;;;1.90;95.80;;;;;;5089377;28;20028;-74
2021/01/22 05:37:56;;;;;;;33.03;14.23;;;1.90;95.90;;;;;;5078134;28;20065;-77
2021/01/22 05:40:22;;;;;;;28.23;12.93;;;1.90;95.80;;;;;;5090715;28;20114;-69
2021/01/22 05:42:59;;;;;;;39.22;17.42;;;1.90;95.70;;;;;;5081244;28;20029;-70
2021/01/22 05:45:54;;;;;;;30.92;15.15;;;2.00;95.80;;;;;;5078908;28;20047;-71
2021/01/22 05:48:27;;;;;;;44.03;20.02;;;2.00;95.90;;;;;;5067339;28;20064;-70
2021/01/22 05:50:58;;;;;;;53.35;22.73;;;2.00;95.80;;;;;;5072644;28;20040;-70
2021/01/22 05:53:25;;;;;;;47.25;20.50;;;1.90;95.80;;;;;;5074557;28;20119;-72
2021/01/22 05:56:17;;;;;;;51.55;21.88;;;1.90;95.90;;;;;;5089796;28;20024;-71
2021/01/22 05:58:47;;;;;;;28.80;11.93;;;1.90;96.10;;;;;;5091696;28;20390;-71
2021/01/22 06:01:21;;;;;;;37.20;18.67;;;2.00;96.10;;;;;;5091784;28;20031;-70
2021/01/22 06:03:52;;;;;;;42.55;19.02;;;2.00;96.00;;;;;;5074515;28;20374;-70
2021/01/22 06:06:19;;;;;;;34.03;15.43;;;1.90;95.90;;;;;;5092348;28;20024;-70
2021/01/22 06:08:52;;;;;;;47.80;20.15;;;1.90;96.00;;;;;;5074940;28;20489;-70
2021/01/22 06:11:23;;;;;;;42.25;16.05;;;2.00;96.10;;;;;;5093203;28;20028;-70
2021/01/22 06:13:50;;;;;;;35.22;16.35;;;2.00;96.20;;;;;;5075167;28;20474;-75
2021/01/22 06:16:18;;;;;;;50.70;21.40;;;2.00;96.10;;;;;;5093419;28;20073;-69
2021/01/22 06:18:57;;;;;;;45.20;20.23;;;2.00;96.10;;;;;;5093383;28;20020;-70
2021/01/22 06:21:25;;;;;;;34.13;17.42;;;2.00;96.10;;;;;;5075519;28;20409;-70
2021/01/22 06:23:52;;;;;;;28.70;13.80;;;2.00;96.00;;;;;;5074871;28;20417;-70
2021/01/22 06:26:19;;;;;;;33.85;15.63;;;2.00;95.80;;;;;;5093141;28;20027;-70
2021/01/22 06:28:46;;;;;;;37.65;19.52;;;2.00;95.80;;;;;;5093525;28;20424;-69
2021/01/22 06:31:13;;;;;;;34.15;15.50;;;2.00;95.90;;;;;;5092293;28;20047;-69
2021/01/22 06:33:40;;;;;;;49.55;22.38;;;2.00;95.90;;;;;;5075422;28;20085;-69
2021/01/22 06:36:07;;;;;;;38.10;18.05;;;2.00;95.90;;;;;;5092780;28;20501;-69
2021/01/22 06:38:33;;;;;;;38.40;17.92;;;2.00;95.90;;;;;;5093018;28;20390;-69
2021/01/22 06:40:59;;;;;;;41.85;19.20;;;2.00;95.90;;;;;;5074573;28;20031;-69
2021/01/22 06:43:27;;;;;;;52.78;22.75;;;2.00;96.00;;;;;;5093516;28;20039;-71
2021/01/22 06:46:00;;;;;;;41.50;18.15;;;2.00;96.20;;;;;;5073125;28;20524;-72
2021/01/22 06:48:26;;;;;;;42.83;18.60;;;2.10;96.20;;;;;;5074820;28;20020;-70
2021/01/22 06:50:51;;;;;;;62.75;22.83;;;2.10;96.10;;;;;;5092518;28;20079;-73
2021/01/22 06:53:17;;;;;;;57.47;21.35;;;2.10;96.00;;;;;;5092726;28;20454;-70
2021/01/22 06:55:52;;;;;;;66.97;26.70;;;2.10;95.90;;;;;;5074670;28;20455;-69
2021/01/22 06:58:31;;;;;;;47.70;21.45;;;2.10;96.00;;;;;;5064924;28;20024;-71
2021/01/22 07:00:59;;;;;;;62.35;24.02;;;2.10;96.10;;;;;;5092799;28;20089;-71
2021/01/22 07:03:37;;;;;;;47.67;20.83;;;2.10;96.10;;;;;;5092630;28;20065;-71
2021/01/22 07:06:07;;;;;;;52.65;20.30;;;2.10;96.10;;;;;;5073475;28;20051;-71
2021/01/22 07:08:55;;;;;;;41.53;17.10;;;2.10;96.20;;;;;;5074130;28;20496;-68
2021/01/22 07:11:22;;;;;;;43.25;19.38;;;2.20;96.20;;;;;;5071500;28;20035;-70
2021/01/22 07:13:48;;;;;;;24.08;11.13;;;2.20;96.10;;;;;;5092273;28;20032;-70
2021/01/22 07:16:17;;;;;;;47.65;20.60;;;2.20;96.10;;;;;;5072594;28;20101;-71
2021/01/22 07:18:53;;;;;;;36.90;18.55;;;2.30;96.10;;;;;;5091086;28;20351;-71
2021/01/22 07:21:28;;;;;;;44.75;19.83;;;2.30;96.20;;;;;;5071621;28;20020;-71
2021/01/22 07:24:02;;;;;;;48.63;19.13;;;2.30;96.00;;;;;;5089814;28;20040;-70
2021/01/22 07:26:40;;;;;;;34.40;14.05;;;2.30;95.90;;;;;;5071170;28;20259;-70
2021/01/22 07:29:18;;;;;;;42.28;16.67;;;2.30;95.70;;;;;;5070616;28;20039;-71
2021/01/22 07:31:57;;;;;;;31.42;14.32;;;2.30;95.90;;;;;;5069326;28;20483;-70
2021/01/22 07:34:52;;;;;;;38.63;17.48;;;2.30;95.90;;;;;;5088341;28;20324;-70
2021/01/22 07:37:23;;;;;;;35.92;16.83;;;2.40;96.00;;;;;;5071270;28;20024;-71
2021/01/22 07:39:51;;;;;;;23.73;11.82;;;2.40;95.90;;;;;;5072782;28;20492;-70
2021/01/22 07:42:20;;;;;;;36.45;16.08;;;2.40;95.80;;;;;;5092992;28;20027;-70
2021/01/22 07:44:47;;;;;;;30.60;14.10;;;2.40;95.90;;;;;;5076608;28;20506;-70
2021/01/22 07:47:31;;;;;;;28.65;13.77;;;2.50;95.80;;;;;;5095892;28;20044;-70
2021/01/22 07:50:03;;;;;;;38.33;17.98;;;2.50;95.80;;;;;;5095580;28;20466;-71
2021/01/22 07:52:29;;;;;;;39.53;17.80;;;2.60;96.00;;;;;;5094882;28;20493;-71
2021/01/22 07:54:56;;;;;;;29.50;13.52;;;2.60;95.90;;;;;;5075535;28;20039;-70
2021/01/22 07:57:24;;;;;;;38.10;18.85;;;2.60;95.80;;;;;;5093612;28;20020;-72
2021/01/22 07:59:50;;;;;;;37.15;18.58;;;2.70;95.70;;;;;;5070650;28;20123;-71
2021/01/22 08:02:21;;;;;;;36.50;17.92;;;2.70;95.80;;;;;;5070135;28;20017;-71
2021/01/22 08:04:59;;;;;;;25.73;12.70;;;2.80;96.00;;;;;;5075722;28;20470;-70
2021/01/22 08:07:51;;;;;;;33.08;15.90;;;2.80;95.50;;;;;;5094711;28;20048;-69
2021/01/22 08:10:16;;;;;;;32.28;14.98;;;2.80;95.20;;;;;;5074312;28;20055;-69
2021/01/22 08:12:58;;;;;;;28.27;12.30;;;2.80;95.10;;;;;;5095323;28;20417;-69
2021/01/22 08:15:25;;;;;;;30.17;14.55;;;2.80;95.20;;;;;;5077369;28;20069;-70
2021/01/22 08:17:51;;;;;;;35.60;16.33;;;2.80;95.00;;;;;;5077101;28;20029;-70
2021/01/22 08:20:20;;;;;;;37.28;18.17;;;2.80;94.80;;;;;;5095518;28;20067;-70
2021/01/22 08:22:56;;;;;;;27.20;11.77;;;2.80;94.80;;;;;;5095463;28;20032;-70
2021/01/22 08:25:32;;;;;;;43.60;17.95;;;2.80;95.00;;;;;;5095508;28;20482;-69
2021/01/22 08:27:59;;;;;;;38.53;18.55;;;2.90;95.10;;;;;;5076818;28;20028;-70
2021/01/22 08:30:26;;;;;;;38.83;18.23;;;2.90;95.20;;;;;;5072136;28;20115;-69
2021/01/22 08:32:57;;;;;;;40.42;17.92;;;2.90;95.20;;;;;;5095423;28;20412;-69
2021/01/22 08:35:27;;;;;;;39.40;17.80;;;2.90;95.10;;;;;;5095075;28;20037;-70
2021/01/22 08:37:54;;;;;;;35.22;17.33;;;2.90;94.90;;;;;;5095066;28;20020;-70
2021/01/22 08:40:21;;;;;;;39.30;20.08;;;2.90;94.60;;;;;;5076974;28;20470;-70
2021/01/22 08:42:58;;;;;;;44.35;20.65;;;2.90;94.90;;;;;;5077049;28;20032;-70
2021/01/22 08:45:24;;;;;;;35.28;17.05;;;2.90;94.90;;;;;;5076799;28;20024;-70
2021/01/22 08:47:50;;;;;;;51.42;23.00;;;3.00;94.90;;;;;;5094617;28;20051;-70
2021/01/22 08:50:17;;;;;;;41.10;19.23;;;3.00;94.70;;;;;;5094996;28;20039;-70
2021/01/22 08:52:43;;;;;;;24.95;12.90;;;3.00;94.50;;;;;;5094844;28;20024;-69
2021/01/22 08:55:22;;;;;;;31.15;13.15;;;3.00;94.40;;;;;;5076076;28;20035;-69
2021/01/22 08:58:05;;;;;;;46.92;20.83;;;2.90;94.30;;;;;;5094863;28;20055;-69
2021/01/22 09:00:31;;;;;;;44.42;20.55;;;2.90;94.50;;;;;;5076638;28;20028;-70
2021/01/22 09:02:57;;;;;;;40.88;18.98;;;3.00;94.20;;;;;;5094533;28;20028;-70
2021/01/22 09:05:24;;;;;;;34.22;15.93;;;2.90;94.30;;;;;;5076972;28;20040;-71
2021/01/22 09:08:08;;;;;;;42.10;21.10;;;3.00;94.40;;;;;;5094268;28;20020;-71
2021/01/22 09:10:40;;;;;;;28.95;13.85;;;3.00;94.30;;;;;;5076298;28;20036;-70
2021/01/22 09:13:25;;;;;;;25.92;13.32;;;3.00;94.30;;;;;;5094417;28;20035;-69
2021/01/22 09:16:05;;;;;;;31.95;14.65;;;3.00;94.10;;;;;;5095099;28;20026;-70
2021/01/22 09:18:31;;;;;;;33.15;16.42;;;3.00;93.90;;;;;;5065811;28;20020;-70
2021/01/22 09:21:06;;;;;;;24.13;12.55;;;3.00;94.00;;;;;;5096173;28;20051;-70
2021/01/22 09:23:33;;;;;;;30.55;15.10;;;3.10;94.10;;;;;;5065128;28;20107;-70
2021/01/22 09:26:00;;;;;;;32.65;16.23;;;3.10;94.10;;;;;;5096106;28;20108;-70
2021/01/22 09:28:26;;;;;;;33.00;15.35;;;3.10;94.20;;;;;;5096586;28;20016;-70
2021/01/22 09:30:52;;;;;;;28.33;12.93;;;3.20;94.80;;;;;;5095393;28;20032;-70
2021/01/22 09:33:18;;;;;;;33.30;17.52;;;3.30;94.10;;;;;;5095768;28;20039;-70
2021/01/22 09:35:44;;;;;;;30.30;14.25;;;3.30;93.90;;;;;;5077814;28;20020;-70
2021/01/22 09:38:10;;;;;;;19.48;9.75;;;3.40;93.70;;;;;;5075681;28;20101;-70
2021/01/22 09:40:36;;;;;;;27.83;12.60;;;3.40;93.50;;;;;;5094037;28;20020;-71
2021/01/22 09:43:03;;;;;;;25.30;14.88;;;3.40;93.50;;;;;;5075849;28;20027;-69
2021/01/22 09:45:29;;;;;;;30.98;14.63;;;3.60;94.30;;;;;;5075043;28;20394;-70
2021/01/22 09:47:55;;;;;;;27.55;15.50;;;3.90;94.80;;;;;;5075566;28;20024;-70
2021/01/22 09:50:21;;;;;;;20.70;10.88;;;4.30;94.90;;;;;;5075202;28;20533;-71
2021/01/22 09:52:47;;;;;;;22.80;13.32;;;4.90;95.00;;;;;;5076195;28;20024;-70
2021/01/22 09:55:15;;;;;;;25.08;13.68;;;5.40;93.80;;;;;;5093874;28;20152;-70
2021/01/22 09:57:41;;;;;;;29.42;17.08;;;5.70;92.00;;;;;;5093731;28;20037;-70
2021/01/22 10:00:08;;;;;;;21.98;12.00;;;6.20;92.70;;;;;;5075388;28;20024;-71
2021/01/22 10:02:35;;;;;;;25.63;13.98;;;6.60;91.50;;;;;;5093411;28;20024;-71
2021/01/22 10:05:01;;;;;;;27.63;15.93;;;6.70;89.10;;;;;;5093871;28;20032;-71
2021/01/22 10:07:27;;;;;;;25.70;15.48;;;6.60;86.70;;;;;;5093666;28;20039;-70
2021/01/22 10:09:52;;;;;;;22.92;12.77;;;6.50;86.50;;;;;;5093298;28;20467;-70
2021/01/22 10:12:20;;;;;;;26.83;14.85;;;6.40;85.80;;;;;;5093676;28;20027;-70
2021/01/22 10:14:46;;;;;;;25.83;14.05;;;6.30;86.60;;;;;;5093449;28;20050;-70
2021/01/22 10:17:12;;;;;;;23.75;12.75;;;6.30;85.00;;;;;;5093516;28;20105;-70
2021/01/22 10:19:38;;;;;;;25.33;13.50;;;6.20;85.10;;;;;;5093223;28;20055;-70
2021/01/22 10:22:04;;;;;;;28.77;14.10;;;6.40;84.90;;;;;;5075138;28;20026;-71
2021/01/22 10:24:30;;;;;;;25.95;13.15;;;6.50;85.40;;;;;;5075444;28;20032;-71
2021/01/22 10:26:56;;;;;;;27.77;16.10;;;6.80;86.80;;;;;;5077117;28;20194;-70
2021/01/22 10:29:21;;;;;;;17.02;10.13;;;7.30;87.00;;;;;;5093338;28;20478;-70
2021/01/22 10:31:48;;;;;;;22.67;12.70;;;7.90;85.80;;;;;;5092872;28;20020;-71
2021/01/22 10:34:14;;;;;;;39.53;15.48;;;8.50;81.90;;;;;;5092986;28;20027;-71
2021/01/22 10:36:40;;;;;;;43.72;20.23;;;8.80;80.10;;;;;;5075099;28;20024;-70
2021/01/22 10:39:06;;;;;;;25.58;13.48;;;9.20;80.50;;;;;;5074857;28;20024;-70
2021/01/22 10:41:33;;;;;;;24.13;13.20;;;9.60;78.60;;;;;;5075471;28;20051;-70
2021/01/22 10:43:59;;;;;;;30.90;14.45;;;9.90;75.50;;;;;;5092644;28;20024;-71
2021/01/22 10:46:24;;;;;;;48.85;17.77;;;9.90;73.50;;;;;;5093199;28;20066;-71
2021/01/22 10:48:50;;;;;;;38.88;18.15;;;10.00;73.30;;;;;;5092670;28;20024;-71
2021/01/22 10:51:16;;;;;;;27.85;13.52;;;10.10;73.80;;;;;;5075250;28;20032;-70
2021/01/22 10:53:42;;;;;;;22.80;11.73;;;10.20;72.60;;;;;;5093135;28;20038;-71
2021/01/22 10:56:07;;;;;;;22.60;12.23;;;10.20;70.20;;;;;;5092743;28;20347;-70
2021/01/22 10:58:33;;;;;;;25.08;13.32;;;9.90;69.70;;;;;;5093013;28;20529;-70
2021/01/22 11:00:59;;;;;;;24.02;14.32;;;9.60;70.00;;;;;;5092614;28;20028;-71
2021/01/22 11:03:28;;;;;;;28.73;14.43;;;9.40;70.90;;;;;;5074644;28;20042;-71
2021/01/22 11:05:54;;;;;;;25.23;14.73;;;9.20;69.90;;;;;;5074225;28;20024;-71
2021/01/22 11:08:20;;;;;;;20.48;12.10;;;8.80;69.90;;;;;;5093090;28;20489;-71
2021/01/22 11:10:46;;;;;;;26.35;14.68;;;8.40;69.90;;;;;;5074429;28;20050;-72
2021/01/22 11:13:11;;;;;;;23.50;14.55;;;8.00;70.30;;;;;;5074749;28;20097;-70
2021/01/22 11:15:37;;;;;;;27.40;15.75;;;7.80;72.30;;;;;;5093593;28;20103;-70
2021/01/22 11:18:03;;;;;;;29.80;17.13;;;7.80;73.50;;;;;;5093730;28;20021;-71
2021/01/22 11:20:29;;;;;;;22.80;12.82;;;8.00;74.60;;;;;;5079899;28;20481;-71
2021/01/22 11:22:55;;;;;;;22.17;12.73;;;8.40;74.40;;;;;;5096719;28;20025;-70
2021/01/22 11:25:21;;;;;;;27.67;15.27;;;8.60;73.40;;;;;;5097065;28;20025;-70
2021/01/22 11:27:49;;;;;;;25.25;14.40;;;8.70;72.50;;;;;;5078165;28;20058;-71
2021/01/22 11:30:16;;;;;;;24.67;14.05;;;8.60;71.50;;;;;;5096044;28;20024;-70
2021/01/22 11:32:42;;;;;;;24.25;14.32;;;8.60;71.20;;;;;;5078317;28;20036;-70
2021/01/22 11:35:09;;;;;;;22.95;13.93;;;8.50;71.50;;;;;;5078213;28;20397;-70
2021/01/22 11:37:40;;;;;;;26.05;14.80;;;8.40;71.70;;;;;;5096616;28;20035;-73
2021/01/22 11:40:08;;;;;;;25.92;14.25;;;8.50;72.10;;;;;;5077932;28;20032;-70
2021/01/22 11:42:34;;;;;;;26.63;16.40;;;8.80;72.10;;;;;;5081947;28;20028;-70
2021/01/22 11:45:00;;;;;;;34.28;18.65;;;9.30;73.60;;;;;;5096106;28;20028;-70
2021/01/22 11:47:25;;;;;;;34.75;21.52;;;9.90;72.80;;;;;;5096195;28;20118;-70
2021/01/22 11:49:51;;;;;;;35.10;22.20;;;10.50;72.90;;;;;;5095899;28;20032;-71
2021/01/22 11:52:17;;;;;;;26.67;17.27;;;11.00;70.80;;;;;;5095933;28;20027;-71
2021/01/22 11:54:43;;;;;;;25.88;15.93;;;11.20;68.40;;;;;;5078037;28;20451;-71
2021/01/22 11:57:09;;;;;;;25.98;16.17;;;10.90;66.30;;;;;;5077575;28;20028;-73
2021/01/22 11:59:35;;;;;;;30.13;16.52;;;10.40;65.90;;;;;;5077517;28;20363;-71
2021/01/22 12:02:01;;;;;;;26.17;15.95;;;9.80;65.10;;;;;;5095656;28;20066;-71
2021/01/22 12:04:27;;;;;;;30.15;18.05;;;9.10;65.60;;;;;;5095769;28;20024;-71
2021/01/22 12:06:53;;;;;;;30.45;17.90;;;8.40;66.00;;;;;;5078015;28;20039;-71
2021/01/22 12:09:20;;;;;;;30.00;18.00;;;7.90;67.70;;;;;;5095638;28;20036;-71
2021/01/22 12:11:46;;;;;;;30.98;16.48;;;7.60;69.00;;;;;;5095720;28;20469;-70
2021/01/22 12:14:11;;;;;;;27.25;15.93;;;7.30;70.10;;;;;;5095049;28;20035;-71
2021/01/22 12:16:37;;;;;;;28.10;16.67;;;7.20;71.50;;;;;;5095987;28;20035;-70
2021/01/22 12:19:03;;;;;;;26.95;16.55;;;7.30;72.90;;;;;;5095813;28;20028;-70
2021/01/22 12:21:32;;;;;;;27.02;16.02;;;7.80;73.80;;;;;;5095560;28;20389;-70
2021/01/22 12:23:58;;;;;;;27.42;16.13;;;8.10;72.90;;;;;;5077272;28;20068;-70
2021/01/22 12:26:23;;;;;;;27.35;15.45;;;8.40;72.90;;;;;;5095381;28;20030;-70
2021/01/22 12:28:50;;;;;;;27.42;16.33;;;8.80;72.40;;;;;;5094014;28;20447;-70
2021/01/22 12:31:16;;;;;;;30.30;17.42;;;9.00;70.70;;;;;;5077261;28;20039;-71
2021/01/22 12:33:42;;;;;;;27.45;16.85;;;8.90;69.50;;;;;;5076900;28;20024;-70
2021/01/22 12:36:08;;;;;;;29.98;17.00;;;8.50;69.50;;;;;;5076816;28;20024;-70
2021/01/22 12:38:34;;;;;;;31.75;17.75;;;8.30;69.60;;;;;;5076988;28;20032;-70
2021/01/22 12:41:01;;;;;;;29.25;17.27;;;8.10;69.40;;;;;;5095073;28;20028;-70
2021/01/22 12:43:26;;;;;;;30.50;18.40;;;7.80;69.40;;;;;;5076863;28;20024;-70